Time;durP1;ratioP1;P1;durP2;ratioP2;P2;SDS_P1;SDS_P2;PMS_P1;PMS_P2;Temp;Humidity;BMP_temperature;BMP_pressure;BME280_temperature;BME280_humidity;BME280_pressure;Samples;Min_cycle;Max_cycle;Signal;HPM_P1;HPM_P2
2021/12/23 00:00:00;;;;;;;30.30;14.60;;;;;;;;;;10281982;28;20213;-80
2021/12/23 00:05:01;;;;;;;32.53;16.30;;;;;;;;;;10289775;28;20216;-79
2021/12/23 00:10:08;;;;;;;29.70;14.57;;;;;;;;;;10290528;28;20225;-80
2021/12/23 00:15:29;;;;;;;28.60;15.40;;;;;;;;;;10290303;28;20329;-79
2021/12/23 00:25:35;;;;;;;30.47;15.70;;;;;;;;;;10289839;28;20311;-80
2021/12/23 00:30:37;;;;;;;29.80;14.30;;;;;;;;;;10286514;28;20296;-79
2021/12/23 00:35:38;;;;;;;29.03;14.83;;;;;;;;;;10272523;28;20201;-80
2021/12/23 00:40:39;;;;;;;31.00;14.67;;;;;;;;;;10287499;28;20255;-80
2021/12/23 00:45:40;;;;;;;31.23;15.00;;;;;;;;;;10286597;28;20287;-81
2021/12/23 00:50:41;;;;;;;34.17;15.13;;;;;;;;;;10271783;28;20284;-80
2021/12/23 00:55:42;;;;;;;27.70;14.67;;;;;;;;;;10290965;28;20209;-80
2021/12/23 01:00:44;;;;;;;28.73;14.27;;;;;;;;;;10287293;28;20314;-80
2021/12/23 01:05:45;;;;;;;37.40;15.93;;;;;;;;;;10285337;28;20213;-80
2021/12/23 01:10:49;;;;;;;28.53;13.27;;;;;;;;;;10287941;28;20193;-79
2021/12/23 01:16:05;;;;;;;31.23;13.97;;;;;;;;;;10287672;28;21393;-80
2021/12/23 01:21:16;;;;;;;30.03;15.60;;;;;;;;;;10284775;28;20327;-79
2021/12/23 01:26:19;;;;;;;32.97;14.53;;;;;;;;;;10285305;28;20580;-79
2021/12/23 01:31:22;;;;;;;25.20;12.43;;;;;;;;;;10282367;28;20221;-80
2021/12/23 01:36:24;;;;;;;27.43;12.50;;;;;;;;;;10282086;28;20217;-80
2021/12/23 01:41:26;;;;;;;29.53;13.70;;;;;;;;;;10283789;28;20213;-80
2021/12/23 01:46:27;;;;;;;27.37;14.57;;;;;;;;;;10285104;28;20717;-79
2021/12/23 01:51:28;;;;;;;26.07;12.60;;;;;;;;;;10292037;28;20228;-79
2021/12/23 01:56:29;;;;;;;25.67;13.10;;;;;;;;;;10288772;28;20255;-80
2021/12/23 02:01:30;;;;;;;28.83;12.30;;;;;;;;;;10289825;28;20236;-80
2021/12/23 02:06:31;;;;;;;31.73;13.33;;;;;;;;;;10288679;28;20875;-79
2021/12/23 02:11:32;;;;;;;24.80;12.30;;;;;;;;;;10288795;28;20193;-81
2021/12/23 02:16:33;;;;;;;27.07;12.23;;;;;;;;;;10290725;28;20341;-80
2021/12/23 02:21:34;;;;;;;26.00;12.73;;;;;;;;;;10290367;28;20236;-80
2021/12/23 02:26:39;;;;;;;22.60;11.50;;;;;;;;;;10290650;28;20565;-80
2021/12/23 02:31:40;;;;;;;27.40;12.40;;;;;;;;;;10290379;28;20213;-80
2021/12/23 02:36:41;;;;;;;24.77;11.57;;;;;;;;;;10289596;28;20752;-80
2021/12/23 02:41:42;;;;;;;24.27;11.97;;;;;;;;;;10292941;28;20189;-79
2021/12/23 02:46:44;;;;;;;20.00;11.90;;;;;;;;;;10292646;28;20241;-80
2021/12/23 02:51:45;;;;;;;24.30;12.70;;;;;;;;;;10293102;28;20236;-80
2021/12/23 02:56:46;;;;;;;22.90;11.53;;;;;;;;;;10273775;28;20235;-79
2021/12/23 03:01:47;;;;;;;20.83;11.10;;;;;;;;;;10274128;28;20210;-80
2021/12/23 03:06:48;;;;;;;22.47;11.77;;;;;;;;;;10287969;28;20970;-81
2021/12/23 03:11:49;;;;;;;20.37;10.83;;;;;;;;;;10269660;28;20195;-80
2021/12/23 03:16:50;;;;;;;20.97;11.57;;;;;;;;;;10288545;28;20228;-81
2021/12/23 03:21:51;;;;;;;26.83;12.33;;;;;;;;;;10267372;28;20946;-80
2021/12/23 03:26:52;;;;;;;23.93;11.93;;;;;;;;;;10267864;28;20221;-81
2021/12/23 03:31:53;;;;;;;25.90;12.17;;;;;;;;;;10283557;28;20221;-80
2021/12/23 03:36:54;;;;;;;19.87;11.27;;;;;;;;;;10285513;28;20240;-80
2021/12/23 03:41:55;;;;;;;20.80;10.97;;;;;;;;;;10285820;28;20264;-80
2021/12/23 03:46:56;;;;;;;19.77;11.47;;;;;;;;;;10263819;28;20275;-80
2021/12/23 03:51:57;;;;;;;23.27;12.17;;;;;;;;;;10286443;28;20193;-79
2021/12/23 03:56:58;;;;;;;21.07;10.93;;;;;;;;;;10269777;28;20209;-81
2021/12/23 04:01:59;;;;;;;22.80;11.63;;;;;;;;;;10287828;28;20213;-80
2021/12/23 04:07:00;;;;;;;23.07;12.03;;;;;;;;;;10269926;28;20315;-79
2021/12/23 04:12:01;;;;;;;22.97;11.97;;;;;;;;;;10285574;28;20216;-80
2021/12/23 04:17:03;;;;;;;21.70;11.07;;;;;;;;;;10286640;28;20228;-81
2021/12/23 04:22:04;;;;;;;24.30;12.13;;;;;;;;;;10265918;28;20235;-80
2021/12/23 04:27:05;;;;;;;27.10;12.03;;;;;;;;;;10268116;28;20780;-80
2021/12/23 04:32:06;;;;;;;23.33;11.43;;;;;;;;;;10284436;28;20578;-80
2021/12/23 04:37:07;;;;;;;22.30;11.60;;;;;;;;;;10290067;28;20227;-80
2021/12/23 04:42:09;;;;;;;15.13;8.70;;;;;;;;;;10270474;28;20220;-80
2021/12/23 04:47:10;;;;;;;19.93;10.27;;;;;;;;;;10266450;28;20221;-80
2021/12/23 04:52:11;;;;;;;22.70;10.30;;;;;;;;;;10277959;28;20202;-81
2021/12/23 04:57:12;;;;;;;24.37;12.23;;;;;;;;;;10283155;28;20225;-80
2021/12/23 05:02:13;;;;;;;20.37;11.73;;;;;;;;;;10282688;28;20220;-80
2021/12/23 05:07:14;;;;;;;24.13;11.60;;;;;;;;;;10301168;28;20204;-80
2021/12/23 05:12:15;;;;;;;21.03;11.37;;;;;;;;;;10286432;28;20193;-80
2021/12/23 05:17:16;;;;;;;18.47;10.27;;;;;;;;;;10281881;28;20231;-80
2021/12/23 05:22:17;;;;;;;22.03;12.03;;;;;;;;;;10286190;28;20186;-80
2021/12/23 05:27:18;;;;;;;21.83;12.00;;;;;;;;;;10291464;28;20279;-81
2021/12/23 05:32:19;;;;;;;17.93;11.00;;;;;;;;;;10273313;28;20694;-81
2021/12/23 05:37:21;;;;;;;24.20;12.37;;;;;;;;;;10281610;28;20219;-81
2021/12/23 05:42:22;;;;;;;23.70;12.40;;;;;;;;;;10277420;28;20240;-80
2021/12/23 05:47:23;;;;;;;23.73;12.53;;;;;;;;;;10294002;28;20271;-80
2021/12/23 05:52:24;;;;;;;20.13;10.97;;;;;;;;;;10268477;28;20754;-81
2021/12/23 05:57:25;;;;;;;23.93;11.73;;;;;;;;;;10284714;28;20225;-80
2021/12/23 06:02:26;;;;;;;20.00;11.23;;;;;;;;;;10286669;28;20730;-80
2021/12/23 06:07:27;;;;;;;22.07;12.00;;;;;;;;;;10282746;28;20224;-81
2021/12/23 06:12:28;;;;;;;19.10;10.60;;;;;;;;;;10264685;28;20755;-81
2021/12/23 06:17:29;;;;;;;20.97;11.67;;;;;;;;;;10289358;28;20787;-80
2021/12/23 06:22:33;;;;;;;19.17;11.17;;;;;;;;;;10264393;28;20185;-81
2021/12/23 06:27:34;;;;;;;21.63;11.20;;;;;;;;;;10281948;28;20805;-81
2021/12/23 06:32:35;;;;;;;19.63;11.30;;;;;;;;;;10271419;28;20217;-80
2021/12/23 06:37:37;;;;;;;17.90;10.47;;;;;;;;;;10269130;28;20253;-81
2021/12/23 06:42:38;;;;;;;21.87;11.20;;;;;;;;;;10285558;28;20190;-81
2021/12/23 06:47:39;;;;;;;21.53;11.37;;;;;;;;;;10282726;28;20224;-81
2021/12/23 06:52:40;;;;;;;21.53;11.30;;;;;;;;;;10271704;28;20691;-81
2021/12/23 06:57:42;;;;;;;19.80;10.97;;;;;;;;;;10283365;28;20829;-81
2021/12/23 07:02:43;;;;;;;20.43;10.73;;;;;;;;;;10285128;28;20237;-81
2021/12/23 07:07:57;;;;;;;19.27;11.17;;;;;;;;;;10284508;28;21873;-81
2021/12/23 07:13:00;;;;;;;18.63;11.07;;;;;;;;;;10285589;28;20822;-81
2021/12/23 07:18:01;;;;;;;16.47;10.70;;;;;;;;;;10284395;28;20229;-80
2021/12/23 07:23:02;;;;;;;19.33;10.90;;;;;;;;;;10284000;28;20186;-81
2021/12/23 07:28:03;;;;;;;19.53;10.93;;;;;;;;;;10288412;28;20231;-81
2021/12/23 07:33:04;;;;;;;19.93;11.23;;;;;;;;;;10280420;28;20697;-81
2021/12/23 07:38:05;;;;;;;20.67;12.27;;;;;;;;;;10286721;28;20217;-81
2021/12/23 07:43:20;;;;;;;21.53;11.47;;;;;;;;;;10278820;28;20189;-80
2021/12/23 07:48:21;;;;;;;22.30;11.80;;;;;;;;;;10271437;28;20763;-80
2021/12/23 07:53:22;;;;;;;20.30;11.13;;;;;;;;;;10266262;28;20232;-81
2021/12/23 07:58:23;;;;;;;20.10;11.30;;;;;;;;;;10267619;28;20303;-79
2021/12/23 08:03:24;;;;;;;18.43;11.27;;;;;;;;;;10284847;28;20224;-79
2021/12/23 08:08:26;;;;;;;21.97;11.77;;;;;;;;;;10276648;28;20241;-79
2021/12/23 08:13:27;;;;;;;20.40;11.13;;;;;;;;;;10289483;28;20205;-80
2021/12/23 08:18:28;;;;;;;21.13;11.93;;;;;;;;;;10280509;28;20244;-79
2021/12/23 08:23:30;;;;;;;21.07;11.77;;;;;;;;;;10305761;28;20212;-81
2021/12/23 08:28:31;;;;;;;18.23;10.73;;;;;;;;;;10294875;28;20229;-79
2021/12/23 08:33:32;;;;;;;19.90;11.40;;;;;;;;;;10301323;28;20303;-80
2021/12/23 08:38:33;;;;;;;20.60;11.67;;;;;;;;;;10272885;28;20217;-78
2021/12/23 08:43:34;;;;;;;25.33;11.77;;;;;;;;;;10285693;28;20600;-80
2021/12/23 08:48:35;;;;;;;14.90;8.73;;;;;;;;;;10289075;28;20225;-80
2021/12/23 08:53:36;;;;;;;21.10;11.73;;;;;;;;;;10292684;28;20200;-81
2021/12/23 08:58:39;;;;;;;12.93;7.07;;;;;;;;;;10277420;28;20577;-80
2021/12/23 09:03:40;;;;;;;19.67;11.03;;;;;;;;;;10300326;28;20308;-81
2021/12/23 09:08:41;;;;;;;22.83;12.07;;;;;;;;;;10281265;28;20193;-80
2021/12/23 09:13:42;;;;;;;24.77;12.53;;;;;;;;;;10283393;28;20224;-81
2021/12/23 09:18:43;;;;;;;19.83;10.57;;;;;;;;;;10300635;28;21334;-81
2021/12/23 09:23:45;;;;;;;19.90;10.67;;;;;;;;;;10319289;28;20193;-79
2021/12/23 09:33:55;;;;;;;29.13;17.13;;;;;;;;;;10296327;28;20217;-81
2021/12/23 09:38:56;;;;;;;23.27;12.90;;;;;;;;;;10280222;28;20251;-81
2021/12/23 09:43:59;;;;;;;22.07;12.73;;;;;;;;;;10293446;28;20200;-81
2021/12/23 09:49:01;;;;;;;22.53;14.63;;;;;;;;;;10301057;28;20194;-80
2021/12/23 09:54:07;;;;;;;23.73;12.10;;;;;;;;;;10283039;28;20303;-80
2021/12/23 09:59:09;;;;;;;21.43;12.33;;;;;;;;;;10278480;28;20229;-81
2021/12/23 10:04:10;;;;;;;27.00;14.00;;;;;;;;;;10281569;28;20221;-81
2021/12/23 10:09:14;;;;;;;26.23;13.60;;;;;;;;;;10275995;28;20201;-82
2021/12/23 10:30:49;;;;;;;23.60;12.27;;;;;;;;;;10291763;28;21891;-79
2021/12/23 10:41:14;;;;;;;18.67;12.75;;;;;;;;;;10294026;28;20236;-80
2021/12/23 10:46:22;;;;;;;19.33;12.35;;;;;;;;;;10276082;28;20232;-79
2021/12/23 10:51:23;;;;;;;22.10;13.35;;;;;;;;;;10294283;28;21050;-80
2021/12/23 11:02:06;;;;;;;23.83;13.40;;;;;;;;;;10296190;28;20740;-80
2021/12/23 11:07:18;;;;;;;21.85;12.52;;;;;;;;;;10287098;28;20218;-79
2021/12/23 11:29:28;;;;;;;26.70;14.63;;;;;;;;;;10297266;28;20231;-79
2021/12/23 11:39:51;;;;;;;24.90;14.07;;;;;;;;;;10293530;28;20220;-81
2021/12/23 11:44:52;;;;;;;23.98;14.90;;;;;;;;;;10278923;28;20213;-79
2021/12/23 11:49:54;;;;;;;22.50;13.48;;;;;;;;;;10288007;28;20325;-80
2021/12/23 11:54:55;;;;;;;26.17;14.90;;;;;;;;;;10279372;28;20241;-80
2021/12/23 12:00:31;;;;;;;24.42;15.57;;;;;;;;;;10290989;28;20944;-80
2021/12/23 12:05:19;;;;;;;25.05;15.65;;;;;;;;;;10285850;28;20221;-80
2021/12/23 12:10:22;;;;;;;27.50;15.50;;;;;;;;;;10286006;28;20202;-80
2021/12/23 12:15:35;;;;;;;26.33;14.57;;;;;;;;;;10291460;28;20284;-79
2021/12/23 12:20:43;;;;;;;25.05;14.82;;;;;;;;;;10276946;28;20244;-83
2021/12/23 12:25:47;;;;;;;25.73;15.32;;;;;;;;;;10284477;28;20244;-79
2021/12/23 12:30:50;;;;;;;25.08;14.57;;;;;;;;;;10288229;28;20250;-83
2021/12/23 12:36:03;;;;;;;19.70;13.20;;;;;;;;;;10267585;28;21029;-80
2021/12/23 12:41:06;;;;;;;25.45;15.30;;;;;;;;;;10267728;28;20225;-80
2021/12/23 12:46:07;;;;;;;23.75;14.57;;;;;;;;;;10253703;28;20213;-79
2021/12/23 12:51:18;;;;;;;25.50;15.32;;;;;;;;;;10257158;28;20487;-79
2021/12/23 12:56:21;;;;;;;30.02;16.08;;;;;;;;;;10261104;28;20214;-80
2021/12/23 13:01:31;;;;;;;34.00;19.02;;;;;;;;;;10282438;28;20229;-81
2021/12/23 13:06:37;;;;;;;36.22;19.08;;;;;;;;;;10279191;28;20232;-81
2021/12/23 13:12:00;;;;;;;27.08;15.38;;;;;;;;;;10295055;28;20567;-80
2021/12/23 13:17:24;;;;;;;26.67;15.80;;;;;;;;;;10283915;28;20244;-81
2021/12/23 13:22:26;;;;;;;24.75;14.52;;;;;;;;;;10269179;28;20275;-80
2021/12/23 13:27:28;;;;;;;30.77;14.77;;;;;;;;;;10294995;28;20225;-80
2021/12/23 13:32:29;;;;;;;21.50;14.68;;;;;;;;;;10288248;28;20259;-81
2021/12/23 13:37:30;;;;;;;24.17;15.50;;;;;;;;;;10289669;28;20217;-81
2021/12/23 13:42:31;;;;;;;23.23;14.70;;;;;;;;;;10274342;28;20289;-81
2021/12/23 13:47:34;;;;;;;24.30;15.10;;;;;;;;;;10279558;28;20588;-81
2021/12/23 13:52:40;;;;;;;22.75;15.00;;;;;;;;;;10277151;28;20780;-80
2021/12/23 13:57:43;;;;;;;22.25;13.90;;;;;;;;;;10291847;28;20221;-80
2021/12/23 14:02:44;;;;;;;23.38;15.10;;;;;;;;;;10265197;28;20319;-81
2021/12/23 14:07:47;;;;;;;23.60;15.02;;;;;;;;;;10289693;28;20627;-81
2021/12/23 14:12:48;;;;;;;27.15;15.43;;;;;;;;;;10276952;28;20217;-80
2021/12/23 14:17:53;;;;;;;26.30;15.30;;;;;;;;;;10275029;28;20223;-80
2021/12/23 14:23:15;;;;;;;24.65;15.38;;;;;;;;;;10291876;28;20967;-81
2021/12/23 14:28:20;;;;;;;27.08;14.98;;;;;;;;;;10291834;28;20224;-81
2021/12/23 14:33:24;;;;;;;25.23;15.07;;;;;;;;;;10287901;28;20284;-83
2021/12/23 14:38:31;;;;;;;29.67;16.70;;;;;;;;;;10272137;28;20228;-84
2021/12/23 14:43:45;;;;;;;27.67;16.83;;;;;;;;;;10271592;28;20604;-84
2021/12/23 14:54:09;;;;;;;29.00;17.05;;;;;;;;;;10285295;28;20201;-85
2021/12/23 14:59:10;;;;;;;29.10;16.65;;;;;;;;;;10280838;28;20601;-86
2021/12/23 15:04:14;;;;;;;33.97;19.30;;;;;;;;;;10278169;28;20259;-86
2021/12/23 15:09:24;;;;;;;38.67;21.83;;;;;;;;;;10284155;28;20213;-86
2021/12/23 15:14:25;;;;;;;40.50;21.58;;;;;;;;;;10257476;28;20210;-86
2021/12/23 15:19:36;;;;;;;30.38;17.73;;;;;;;;;;10272138;28;20244;-86
2021/12/23 15:24:42;;;;;;;34.33;17.35;;;;;;;;;;10266710;28;20213;-86
2021/12/23 15:29:44;;;;;;;39.22;20.10;;;;;;;;;;10275017;28;20294;-85
2021/12/23 15:34:50;;;;;;;33.80;18.20;;;;;;;;;;10294848;28;20245;-81
2021/12/23 15:39:52;;;;;;;36.17;17.55;;;;;;;;;;10299955;28;20308;-80
2021/12/23 15:44:53;;;;;;;27.48;15.63;;;;;;;;;;10278510;28;20213;-81
2021/12/23 15:49:57;;;;;;;30.48;17.42;;;;;;;;;;10267243;28;21038;-81
2021/12/23 15:54:58;;;;;;;28.30;17.25;;;;;;;;;;10284824;28;20607;-80
2021/12/23 15:59:59;;;;;;;31.90;18.08;;;;;;;;;;10278718;28;20228;-81
2021/12/23 16:10:06;;;;;;;30.40;16.75;;;;;;;;;;10278237;28;20726;-80
2021/12/23 16:15:09;;;;;;;29.10;16.42;;;;;;;;;;10263575;28;20315;-82
2021/12/23 16:20:11;;;;;;;28.27;16.03;;;;;;;;;;10275566;28;20260;-81
2021/12/23 16:25:12;;;;;;;32.83;18.20;;;;;;;;;;10268469;28;20211;-81
2021/12/23 16:30:22;;;;;;;28.88;17.65;;;;;;;;;;10271284;28;20201;-80
2021/12/23 16:35:25;;;;;;;27.88;16.90;;;;;;;;;;10250481;28;20205;-81
2021/12/23 16:40:29;;;;;;;38.38;17.80;;;;;;;;;;10252494;28;20217;-81
2021/12/23 16:45:30;;;;;;;32.90;17.80;;;;;;;;;;10278046;28;20205;-81
2021/12/23 16:50:31;;;;;;;32.40;18.58;;;;;;;;;;10265255;28;20205;-81
2021/12/23 17:00:55;;;;;;;38.28;19.77;;;;;;;;;;10281613;28;20225;-81
2021/12/23 17:05:56;;;;;;;33.70;19.20;;;;;;;;;;10265629;28;20208;-82
2021/12/23 17:10:59;;;;;;;38.10;22.30;;;;;;;;;;10287019;28;20197;-83
2021/12/23 17:16:00;;;;;;;36.25;19.80;;;;;;;;;;10285193;28;20326;-81
2021/12/23 17:26:07;;;;;;;43.67;21.20;;;;;;;;;;10291259;28;20233;-82
2021/12/23 17:31:08;;;;;;;36.45;21.48;;;;;;;;;;10277325;28;20217;-81
2021/12/23 17:36:09;;;;;;;38.63;20.90;;;;;;;;;;10280157;28;20205;-81
2021/12/23 17:41:10;;;;;;;38.08;20.10;;;;;;;;;;10271159;28;20217;-81
2021/12/23 17:46:11;;;;;;;48.38;22.52;;;;;;;;;;10280875;28;20199;-81
2021/12/23 17:51:12;;;;;;;45.42;21.83;;;;;;;;;;10270083;28;20216;-82
2021/12/23 17:56:13;;;;;;;40.47;21.48;;;;;;;;;;10267262;28;21042;-81
2021/12/23 18:01:14;;;;;;;36.55;20.35;;;;;;;;;;10259474;28;20296;-82
2021/12/23 18:06:16;;;;;;;37.80;21.13;;;;;;;;;;10290255;28;20204;-81
2021/12/23 18:11:17;;;;;;;35.67;21.85;;;;;;;;;;10293775;28;20205;-81
2021/12/23 18:16:18;;;;;;;35.75;22.67;;;;;;;;;;10274471;28;20193;-81
2021/12/23 18:21:19;;;;;;;50.70;29.95;;;;;;;;;;10292042;28;20710;-82
2021/12/23 18:26:21;;;;;;;44.80;25.58;;;;;;;;;;10271879;28;20227;-82
2021/12/23 18:31:24;;;;;;;34.30;19.88;;;;;;;;;;10293210;28;20312;-81
2021/12/23 18:36:34;;;;;;;43.90;24.55;;;;;;;;;;10284363;28;20206;-82
2021/12/23 18:41:36;;;;;;;36.22;20.77;;;;;;;;;;10297911;28;20213;-82
2021/12/23 18:46:39;;;;;;;40.00;22.95;;;;;;;;;;10289285;28;20876;-81
2021/12/23 18:51:40;;;;;;;37.28;21.95;;;;;;;;;;10267980;28;20483;-81
2021/12/23 18:56:41;;;;;;;38.08;21.20;;;;;;;;;;10272248;28;20205;-81
2021/12/23 19:01:44;;;;;;;37.85;21.25;;;;;;;;;;10286878;28;20728;-81
2021/12/23 19:06:48;;;;;;;33.80;19.40;;;;;;;;;;10286524;28;20220;-81
2021/12/23 19:11:49;;;;;;;41.17;22.50;;;;;;;;;;10287376;28;20583;-81
2021/12/23 19:16:50;;;;;;;37.90;21.60;;;;;;;;;;10275065;28;20416;-81
2021/12/23 19:21:51;;;;;;;39.58;21.25;;;;;;;;;;10269472;28;20267;-82
2021/12/23 19:26:52;;;;;;;42.28;24.77;;;;;;;;;;10314476;28;20211;-81
2021/12/23 19:31:54;;;;;;;42.00;24.13;;;;;;;;;;10270284;28;20208;-83
2021/12/23 19:36:55;;;;;;;43.15;21.38;;;;;;;;;;10290637;28;20288;-82
2021/12/23 19:41:56;;;;;;;42.25;22.25;;;;;;;;;;10288584;28;20492;-82
2021/12/23 19:46:57;;;;;;;45.00;24.13;;;;;;;;;;10267650;28;20192;-83
2021/12/23 19:51:59;;;;;;;47.33;25.73;;;;;;;;;;10294308;28;20205;-83
2021/12/23 19:57:00;;;;;;;45.70;24.48;;;;;;;;;;10304920;28;20225;-82
2021/12/23 20:02:01;;;;;;;30.77;17.65;;;;;;;;;;10268554;28;20217;-81
2021/12/23 20:07:04;;;;;;;32.47;18.73;;;;;;;;;;10289880;28;20208;-82
2021/12/23 20:12:06;;;;;;;33.70;18.17;;;;;;;;;;10290452;28;20870;-82
2021/12/23 20:17:07;;;;;;;34.63;18.45;;;;;;;;;;10289637;28;20363;-82
2021/12/23 20:22:08;;;;;;;35.03;18.33;;;;;;;;;;10277345;28;20226;-82
2021/12/23 20:27:10;;;;;;;37.53;19.65;;;;;;;;;;10290265;28;20221;-82
2021/12/23 20:32:11;;;;;;;33.33;18.92;;;;;;;;;;10275832;28;20300;-81
2021/12/23 20:37:14;;;;;;;36.85;19.80;;;;;;;;;;10288515;28;20201;-82
2021/12/23 20:42:15;;;;;;;38.22;20.25;;;;;;;;;;10285828;28;20225;-81
2021/12/23 20:47:16;;;;;;;33.38;19.30;;;;;;;;;;10273186;28;20816;-83
2021/12/23 20:52:17;;;;;;;37.25;20.08;;;;;;;;;;10268469;28;20280;-81
2021/12/23 20:57:18;;;;;;;33.10;19.13;;;;;;;;;;10291361;28;20201;-82
2021/12/23 21:02:19;;;;;;;53.58;29.30;;;;;;;;;;10290440;28;20243;-81
2021/12/23 21:07:20;;;;;;;43.92;23.60;;;;;;;;;;10293046;28;20209;-81
2021/12/23 21:12:21;;;;;;;47.88;24.13;;;;;;;;;;10271639;28;20208;-81
2021/12/23 21:17:23;;;;;;;54.83;25.98;;;;;;;;;;10294336;28;20296;-80
2021/12/23 21:22:24;;;;;;;58.03;24.77;;;;;;;;;;10294467;28;20364;-80
2021/12/23 21:27:25;;;;;;;54.83;27.42;;;;;;;;;;10274688;28;20284;-80
2021/12/23 21:32:26;;;;;;;54.25;25.75;;;;;;;;;;10275478;28;20245;-80
2021/12/23 21:37:27;;;;;;;58.13;27.30;;;;;;;;;;10287963;28;20214;-81
2021/12/23 21:42:29;;;;;;;63.33;28.17;;;;;;;;;;10294687;28;20201;-81
2021/12/23 21:47:30;;;;;;;59.28;29.00;;;;;;;;;;10266577;28;20219;-80
2021/12/23 21:52:32;;;;;;;68.40;29.63;;;;;;;;;;10288445;28;21116;-80
2021/12/23 21:57:33;;;;;;;58.97;29.92;;;;;;;;;;10302788;28;20202;-81
2021/12/23 22:02:34;;;;;;;61.20;27.98;;;;;;;;;;10271466;28;20834;-81
2021/12/23 22:07:35;;;;;;;76.25;29.42;;;;;;;;;;10288163;28;20229;-82
2021/12/23 22:12:37;;;;;;;64.55;28.63;;;;;;;;;;10277289;28;20220;-82
2021/12/23 22:17:38;;;;;;;102.03;65.50;;;;;;;;;;10271525;28;20205;-82
2021/12/23 22:22:39;;;;;;;68.40;30.20;;;;;;;;;;10277376;28;20201;-82
2021/12/23 22:27:41;;;;;;;72.90;30.80;;;;;;;;;;10278268;28;20695;-82
2021/12/23 22:32:43;;;;;;;66.75;29.38;;;;;;;;;;10271901;28;20295;-82
2021/12/23 22:37:44;;;;;;;61.92;27.92;;;;;;;;;;10289488;28;20497;-80
2021/12/23 22:42:45;;;;;;;60.30;29.00;;;;;;;;;;10290609;28;21168;-82
2021/12/23 22:47:47;;;;;;;69.30;30.35;;;;;;;;;;10279982;28;20197;-81
2021/12/23 22:52:48;;;;;;;68.20;30.48;;;;;;;;;;10272313;28;20197;-81
2021/12/23 22:57:50;;;;;;;65.82;29.60;;;;;;;;;;10262153;28;20221;-82
2021/12/23 23:02:51;;;;;;;67.68;30.23;;;;;;;;;;10256020;28;20224;-81
2021/12/23 23:07:52;;;;;;;75.05;30.58;;;;;;;;;;10272358;28;20240;-82
2021/12/23 23:13:00;;;;;;;79.18;32.30;;;;;;;;;;10249663;28;20321;-81
2021/12/23 23:18:01;;;;;;;73.03;31.83;;;;;;;;;;10267652;28;20222;-82
2021/12/23 23:23:06;;;;;;;70.93;30.38;;;;;;;;;;10254621;28;20210;-82
2021/12/23 23:39:05;;;;;;;68.32;28.27;;;;;;;;;;10278106;28;20276;-82
2021/12/23 23:44:07;;;;;;;70.20;31.13;;;;;;;;;;10273189;28;20681;-81
2021/12/23 23:49:08;;;;;;;60.67;27.17;;;;;;;;;;10278669;28;20251;-81
2021/12/23 23:54:09;;;;;;;53.85;25.08;;;;;;;;;;10301307;28;20206;-81
2021/12/23 23:59:10;;;;;;;54.42;23.17;;;;;;;;;;10265802;28;20224;-81
